Time;durP1;ratioP1;P1;durP2;ratioP2;P2;SDS_P1;SDS_P2;PMS_P1;PMS_P2;Temp;Humidity;BMP_temperature;BMP_pressure;BME280_temperature;BME280_humidity;BME280_pressure;Samples;Min_cycle;Max_cycle;Signal;HPM_P1;HPM_P2
2021/04/19 00:00:23;;;;;;;76.95;38.40;;;6.30;90.90;;;;;;5071737;28;20432;-67
2021/04/19 00:02:48;;;;;;;76.18;37.90;;;6.30;91.00;;;;;;5065430;28;20112;-67
2021/04/19 00:05:15;;;;;;;85.53;38.53;;;6.30;91.00;;;;;;5061053;28;20036;-67
2021/04/19 00:07:41;;;;;;;85.13;39.75;;;6.30;90.90;;;;;;5070991;28;20021;-67
2021/04/19 00:10:07;;;;;;;77.18;35.70;;;6.20;90.70;;;;;;5071490;28;20498;-67
2021/04/19 00:12:36;;;;;;;78.47;37.03;;;6.10;90.60;;;;;;5071687;28;20114;-66
2021/04/19 00:15:04;;;;;;;81.15;37.58;;;6.10;90.60;;;;;;5062075;28;20467;-67
2021/04/19 00:17:31;;;;;;;73.30;37.72;;;6.10;90.70;;;;;;5061132;28;20506;-67
2021/04/19 00:19:56;;;;;;;70.40;36.45;;;6.10;90.90;;;;;;5071548;28;20514;-67
2021/04/19 00:22:22;;;;;;;71.88;36.05;;;6.20;90.80;;;;;;5070133;28;20031;-68
2021/04/19 00:24:47;;;;;;;74.57;37.95;;;6.10;90.50;;;;;;5071227;28;20025;-67
2021/04/19 00:27:13;;;;;;;84.80;39.53;;;6.10;90.60;;;;;;5068272;28;20351;-67
2021/04/19 00:29:38;;;;;;;74.85;37.85;;;6.10;90.60;;;;;;5054898;28;20029;-67
2021/04/19 00:32:04;;;;;;;75.68;39.05;;;6.10;90.60;;;;;;5066456;28;20036;-67
2021/04/19 00:34:30;;;;;;;74.50;38.42;;;6.10;90.50;;;;;;5069573;28;20032;-67
2021/04/19 00:36:55;;;;;;;70.35;37.90;;;6.10;90.60;;;;;;5068949;28;20017;-66
2021/04/19 00:39:21;;;;;;;69.50;38.28;;;6.20;90.60;;;;;;5060645;28;20033;-67
2021/04/19 00:41:47;;;;;;;65.25;35.92;;;6.20;90.50;;;;;;5064071;28;20021;-67
2021/04/19 00:44:12;;;;;;;70.97;36.17;;;6.10;90.10;;;;;;5066176;28;20387;-68
2021/04/19 00:46:39;;;;;;;69.85;36.75;;;6.00;90.10;;;;;;5069488;28;20024;-67
2021/04/19 00:49:04;;;;;;;68.78;36.58;;;5.90;90.40;;;;;;5062694;28;20036;-66
2021/04/19 00:51:30;;;;;;;74.30;39.30;;;5.90;90.50;;;;;;5061715;28;20024;-66
2021/04/19 00:53:56;;;;;;;79.22;37.80;;;5.80;90.30;;;;;;5071699;28;20028;-67
2021/04/19 00:56:22;;;;;;;80.03;39.72;;;5.70;90.70;;;;;;5070181;28;20521;-67
2021/04/19 00:58:48;;;;;;;74.43;37.80;;;5.60;91.00;;;;;;5069784;28;20044;-67
2021/04/19 01:01:15;;;;;;;72.18;38.85;;;5.50;90.70;;;;;;5071001;28;20024;-67
2021/04/19 01:03:41;;;;;;;69.70;36.53;;;5.40;90.70;;;;;;5070884;28;20051;-66
2021/04/19 01:06:07;;;;;;;69.60;36.20;;;5.40;90.60;;;;;;5070119;28;20071;-66
2021/04/19 01:08:33;;;;;;;77.20;38.22;;;5.30;90.60;;;;;;5070840;28;20025;-66
2021/04/19 01:10:59;;;;;;;65.25;34.53;;;5.30;90.80;;;;;;5097866;22;20044;-71
2021/04/19 01:13:25;;;;;;;70.97;36.72;;;5.30;90.80;;;;;;5073419;28;20103;-71
2021/04/19 01:15:50;;;;;;;70.55;36.63;;;5.30;90.70;;;;;;5091133;28;20027;-71
2021/04/19 01:18:16;;;;;;;64.05;33.92;;;5.20;90.60;;;;;;5090596;28;20036;-71
2021/04/19 01:20:43;;;;;;;56.42;31.48;;;5.20;90.60;;;;;;5103208;28;20096;-71
2021/04/19 01:23:10;;;;;;;65.05;33.78;;;5.30;90.70;;;;;;5112568;28;20047;-71
2021/04/19 01:25:37;;;;;;;57.35;32.47;;;5.30;90.30;;;;;;5113256;28;20028;-72
2021/04/19 01:28:03;;;;;;;68.53;34.92;;;5.30;90.40;;;;;;5112978;28;20023;-71
2021/04/19 01:30:34;;;;;;;63.67;34.97;;;5.20;90.20;;;;;;5112436;28;20043;-71
2021/04/19 01:33:01;;;;;;;69.85;36.67;;;5.30;90.30;;;;;;5110756;28;20030;-70
2021/04/19 01:35:26;;;;;;;62.95;35.70;;;5.30;90.50;;;;;;5087991;28;20032;-71
2021/04/19 01:37:52;;;;;;;73.00;37.03;;;5.30;90.40;;;;;;5092142;28;20028;-70
2021/04/19 01:40:18;;;;;;;70.07;37.72;;;5.30;90.40;;;;;;5111222;28;20051;-71
2021/04/19 01:42:45;;;;;;;67.28;37.22;;;5.20;90.40;;;;;;5111012;28;20541;-70
2021/04/19 01:45:12;;;;;;;58.42;34.05;;;5.30;90.50;;;;;;5100010;28;20024;-70
2021/04/19 01:47:37;;;;;;;61.17;36.00;;;5.30;90.30;;;;;;5110415;28;20028;-70
2021/04/19 01:50:24;;;;;;;61.55;35.13;;;5.30;90.30;;;;;;5111209;28;20019;-71
2021/04/19 01:52:50;;;;;;;64.80;36.05;;;5.20;90.20;;;;;;5097086;28;20020;-72
2021/04/19 01:55:19;;;;;;;60.90;33.92;;;5.30;90.30;;;;;;5092921;28;20028;-72
2021/04/19 01:57:48;;;;;;;66.50;36.78;;;5.30;90.50;;;;;;5093689;28;20060;-71
2021/04/19 02:00:15;;;;;;;62.63;35.05;;;5.30;90.60;;;;;;5096896;28;20031;-71
2021/04/19 02:03:07;;;;;;;54.75;32.80;;;5.40;90.70;;;;;;5114982;28;20626;-71
2021/04/19 02:06:04;;;;;;;53.60;32.92;;;5.50;90.70;;;;;;5115181;28;20031;-71
2021/04/19 02:08:57;;;;;;;60.13;34.05;;;5.60;90.60;;;;;;5114826;28;20012;-71
2021/04/19 02:12:00;;;;;;;54.42;31.95;;;5.60;90.40;;;;;;5114680;28;20076;-71
2021/04/19 02:14:43;;;;;;;61.20;32.55;;;5.70;90.20;;;;;;5114035;28;20035;-71
2021/04/19 02:17:15;;;;;;;65.40;35.28;;;5.80;90.10;;;;;;5114353;28;20039;-72
2021/04/19 02:19:52;;;;;;;77.63;35.95;;;5.90;89.90;;;;;;5096165;28;20026;-72
2021/04/19 02:22:25;;;;;;;77.93;35.92;;;5.90;90.00;;;;;;5114495;28;20023;-71
2021/04/19 02:25:02;;;;;;;76.28;35.58;;;5.90;90.20;;;;;;5096201;28;20077;-71
2021/04/19 02:27:37;;;;;;;74.05;36.05;;;5.90;89.90;;;;;;5097833;28;20031;-71
2021/04/19 02:30:08;;;;;;;66.15;37.58;;;5.80;89.90;;;;;;5110011;28;20518;-71
2021/04/19 02:32:36;;;;;;;71.55;36.05;;;5.80;89.60;;;;;;5080037;28;20012;-70
2021/04/19 02:35:06;;;;;;;74.35;37.20;;;5.60;89.20;;;;;;5108774;28;20031;-70
2021/04/19 02:37:35;;;;;;;73.35;36.00;;;5.50;89.60;;;;;;5113681;28;20047;-71
2021/04/19 02:40:03;;;;;;;80.55;40.35;;;5.50;90.00;;;;;;5114337;28;20111;-70
2021/04/19 02:42:33;;;;;;;75.80;36.70;;;5.50;89.90;;;;;;5114230;28;20015;-71
2021/04/19 02:44:59;;;;;;;68.50;34.60;;;5.60;90.00;;;;;;5103420;28;20507;-71
2021/04/19 02:47:26;;;;;;;59.65;34.03;;;5.60;90.10;;;;;;5113523;28;20512;-71
2021/04/19 02:49:51;;;;;;;63.50;34.05;;;5.60;89.80;;;;;;5114154;28;20032;-71
2021/04/19 02:52:18;;;;;;;59.60;32.72;;;5.50;89.70;;;;;;5095640;28;20030;-71
2021/04/19 02:54:46;;;;;;;58.58;33.45;;;5.40;89.40;;;;;;5114237;28;20016;-71
2021/04/19 02:57:25;;;;;;;60.65;33.67;;;5.30;89.60;;;;;;5116195;28;20016;-71
2021/04/19 02:59:52;;;;;;;56.25;32.85;;;5.30;89.70;;;;;;5103541;28;20504;-71
2021/04/19 03:02:23;;;;;;;55.47;31.60;;;5.20;89.30;;;;;;5127315;28;20022;-70
2021/04/19 03:04:49;;;;;;;53.28;31.30;;;5.10;89.40;;;;;;5118207;28;20014;-71
2021/04/19 03:07:17;;;;;;;55.67;31.33;;;5.00;89.50;;;;;;5113540;28;20587;-70
2021/04/19 03:09:53;;;;;;;52.55;30.17;;;4.90;89.60;;;;;;5112943;28;20020;-71
2021/04/19 03:12:24;;;;;;;51.42;30.95;;;4.90;89.70;;;;;;5113726;28;20016;-71
2021/04/19 03:14:58;;;;;;;46.45;28.15;;;4.90;89.90;;;;;;5095352;28;20020;-71
2021/04/19 03:17:26;;;;;;;49.97;31.77;;;4.90;89.90;;;;;;5094544;28;20103;-71
2021/04/19 03:20:00;;;;;;;86.90;54.05;;;5.10;89.60;;;;;;5095605;28;20089;-70
2021/04/19 03:22:28;;;;;;;51.30;32.13;;;5.10;89.50;;;;;;5113574;28;20024;-70
2021/04/19 03:24:55;;;;;;;45.58;29.70;;;5.10;89.20;;;;;;5112877;28;20473;-70
2021/04/19 03:27:24;;;;;;;49.35;30.88;;;5.10;89.20;;;;;;5112742;28;20023;-70
2021/04/19 03:29:49;;;;;;;46.92;28.35;;;5.00;89.30;;;;;;5113232;28;20038;-69
2021/04/19 03:32:20;;;;;;;45.67;29.15;;;5.10;89.50;;;;;;5095141;28;20019;-71
2021/04/19 03:34:46;;;;;;;1012.83;533.15;;;5.20;89.40;;;;;;5113293;28;20016;-71
2021/04/19 03:37:23;;;;;;;126.30;76.65;;;5.20;89.50;;;;;;5094434;28;20090;-71
2021/04/19 03:39:58;;;;;;;42.22;27.17;;;5.30;89.30;;;;;;5094628;28;20507;-70
2021/04/19 03:42:25;;;;;;;39.38;27.42;;;5.30;89.30;;;;;;5113083;28;20020;-70
2021/04/19 03:44:52;;;;;;;43.47;28.52;;;5.30;89.50;;;;;;5101776;28;20481;-71
2021/04/19 03:47:20;;;;;;;40.60;25.85;;;5.30;88.90;;;;;;5112241;28;20030;-71
2021/04/19 03:49:53;;;;;;;41.08;27.90;;;5.40;88.80;;;;;;5094369;28;20016;-70
2021/04/19 03:52:28;;;;;;;37.50;26.25;;;5.50;88.90;;;;;;5113053;28;20024;-71
2021/04/19 03:54:55;;;;;;;37.95;26.23;;;5.60;89.10;;;;;;5112618;28;20026;-71
2021/04/19 03:57:23;;;;;;;40.35;27.40;;;5.70;89.00;;;;;;5108132;28;20028;-70
2021/04/19 03:59:56;;;;;;;52.45;32.95;;;5.80;88.50;;;;;;5106828;28;20142;-70
2021/04/19 04:02:24;;;;;;;48.08;32.03;;;5.90;88.20;;;;;;5094557;28;20023;-70
2021/04/19 04:04:50;;;;;;;53.47;35.85;;;5.90;87.60;;;;;;5112386;28;20381;-70
2021/04/19 04:07:17;;;;;;;44.55;28.85;;;5.80;87.30;;;;;;5073294;28;20035;-70
2021/04/19 04:09:43;;;;;;;36.10;25.00;;;5.90;88.20;;;;;;5105409;28;20016;-70
2021/04/19 04:12:10;;;;;;;35.30;25.55;;;6.00;87.30;;;;;;5093940;28;20028;-70
2021/04/19 04:14:47;;;;;;;36.22;26.35;;;6.00;87.20;;;;;;5094008;28;20034;-71
2021/04/19 04:17:13;;;;;;;34.33;24.85;;;6.00;86.80;;;;;;5111501;28;20039;-71
2021/04/19 04:19:39;;;;;;;44.30;25.73;;;6.00;86.80;;;;;;5112075;28;20024;-71
2021/04/19 04:22:04;;;;;;;43.92;28.67;;;6.00;86.10;;;;;;5111230;28;20034;-71
2021/04/19 04:24:30;;;;;;;38.10;26.38;;;6.00;86.60;;;;;;5112165;28;20145;-71
2021/04/19 04:26:56;;;;;;;39.88;28.40;;;6.00;86.20;;;;;;5111046;28;20724;-72
2021/04/19 04:29:24;;;;;;;39.22;26.83;;;6.10;86.30;;;;;;5108505;28;20027;-70
2021/04/19 04:31:50;;;;;;;35.42;24.83;;;6.10;86.70;;;;;;5112076;28;20034;-71
2021/04/19 04:34:15;;;;;;;33.17;24.05;;;6.10;86.40;;;;;;5112225;28;20032;-71
2021/04/19 04:36:41;;;;;;;32.38;24.27;;;6.10;85.80;;;;;;5092532;28;20022;-70
2021/04/19 04:39:06;;;;;;;31.00;23.27;;;6.20;86.50;;;;;;5111789;28;20119;-70
2021/04/19 04:41:32;;;;;;;32.63;23.80;;;6.20;86.30;;;;;;5093545;28;20020;-70
2021/04/19 04:44:01;;;;;;;33.22;23.85;;;6.30;86.40;;;;;;5111528;28;20031;-71
2021/04/19 04:46:59;;;;;;;31.88;23.77;;;6.30;86.30;;;;;;5110952;28;20052;-71
2021/04/19 04:49:27;;;;;;;30.50;22.13;;;6.30;85.70;;;;;;5068545;28;20485;-71
2021/04/19 04:51:57;;;;;;;30.17;23.25;;;6.40;85.50;;;;;;5111648;28;20404;-71
2021/04/19 04:54:23;;;;;;;30.98;22.80;;;6.30;85.40;;;;;;5111475;28;20392;-71
2021/04/19 04:56:52;;;;;;;29.88;23.17;;;6.40;85.20;;;;;;5110468;28;20495;-71
2021/04/19 04:59:19;;;;;;;32.22;23.73;;;6.40;85.00;;;;;;5101313;28;20024;-71
2021/04/19 05:01:46;;;;;;;28.67;22.70;;;6.40;84.60;;;;;;5111365;28;20469;-70
2021/04/19 05:04:12;;;;;;;29.38;22.35;;;6.50;84.60;;;;;;5093215;28;20028;-70
2021/04/19 05:06:38;;;;;;;26.60;20.90;;;6.50;84.30;;;;;;5110550;28;20038;-70
2021/04/19 05:09:09;;;;;;;31.48;22.50;;;6.60;84.40;;;;;;5092806;28;20400;-70
2021/04/19 05:11:34;;;;;;;30.27;22.50;;;6.70;83.90;;;;;;5110592;28;20046;-69
2021/04/19 05:14:01;;;;;;;30.40;21.23;;;6.70;84.10;;;;;;5092803;28;20485;-71
2021/04/19 05:16:28;;;;;;;27.90;21.05;;;6.80;83.70;;;;;;5109929;28;20028;-70
2021/04/19 05:18:58;;;;;;;26.45;21.48;;;7.00;83.50;;;;;;5092711;28;20032;-71
2021/04/19 05:21:24;;;;;;;31.63;21.05;;;7.10;82.90;;;;;;5108299;28;20412;-70
2021/04/19 05:23:49;;;;;;;32.92;23.13;;;7.30;82.20;;;;;;5102832;28;20028;-71
2021/04/19 05:26:17;;;;;;;31.90;21.05;;;7.40;81.80;;;;;;5089713;28;20030;-70
2021/04/19 05:28:44;;;;;;;33.83;22.95;;;7.50;81.70;;;;;;5111209;28;20094;-70
2021/04/19 05:31:10;;;;;;;26.40;20.40;;;7.60;81.10;;;;;;5110408;28;20026;-70
2021/04/19 05:33:36;;;;;;;28.42;21.00;;;7.80;80.90;;;;;;5106720;28;20145;-70
2021/04/19 05:36:10;;;;;;;25.55;19.60;;;7.90;80.30;;;;;;5104995;27;20103;-70
2021/04/19 05:38:38;;;;;;;25.17;18.70;;;8.00;79.60;;;;;;5086692;28;20606;-70
2021/04/19 05:41:04;;;;;;;26.95;20.35;;;8.00;79.90;;;;;;5114539;28;20102;-70
2021/04/19 05:43:30;;;;;;;23.80;18.75;;;8.20;79.40;;;;;;5108638;28;20177;-70
2021/04/19 05:45:59;;;;;;;26.10;20.42;;;8.40;78.10;;;;;;5105497;28;20020;-70
2021/04/19 05:48:25;;;;;;;27.33;19.92;;;8.40;77.60;;;;;;5095176;28;20523;-71
2021/04/19 05:50:57;;;;;;;24.63;19.42;;;8.30;77.50;;;;;;5091490;28;20019;-70
2021/04/19 05:53:23;;;;;;;27.50;20.75;;;8.00;79.00;;;;;;5096294;28;20489;-71
2021/04/19 05:55:55;;;;;;;30.65;21.80;;;7.80;79.60;;;;;;5114545;28;20065;-70
2021/04/19 05:58:26;;;;;;;31.08;23.00;;;7.80;79.90;;;;;;5114253;28;20481;-72
2021/04/19 06:01:06;;;;;;;32.40;22.33;;;7.70;80.80;;;;;;5096310;28;20024;-72
2021/04/19 06:04:05;;;;;;;35.03;22.92;;;7.70;80.40;;;;;;5114416;28;20031;-73
2021/04/19 06:06:58;;;;;;;32.30;22.75;;;7.80;81.10;;;;;;5082427;28;20027;-73
2021/04/19 06:09:28;;;;;;;33.58;23.20;;;7.80;81.10;;;;;;5111539;28;20028;-73
2021/04/19 06:12:08;;;;;;;36.50;25.88;;;7.70;82.20;;;;;;5113960;28;20051;-73
2021/04/19 06:14:38;;;;;;;39.83;25.05;;;7.80;82.10;;;;;;5096909;28;20016;-72
2021/04/19 06:17:04;;;;;;;42.45;27.80;;;7.70;82.50;;;;;;5093447;28;20024;-73
2021/04/19 06:19:32;;;;;;;43.70;26.20;;;7.80;82.80;;;;;;5114315;28;20035;-75
2021/04/19 06:21:58;;;;;;;33.50;24.45;;;8.00;82.70;;;;;;5089389;28;20080;-73
2021/04/19 06:24:24;;;;;;;30.75;22.35;;;8.40;81.40;;;;;;5114992;28;20030;-72
2021/04/19 06:26:49;;;;;;;34.38;23.15;;;9.00;80.30;;;;;;5113557;28;20019;-73
2021/04/19 06:29:24;;;;;;;28.75;21.02;;;9.70;77.70;;;;;;5114770;28;20077;-73
2021/04/19 06:31:51;;;;;;;28.77;20.80;;;10.40;75.10;;;;;;5096895;28;20481;-72
2021/04/19 06:34:18;;;;;;;30.17;19.08;;;11.30;71.70;;;;;;5091368;28;20024;-74
2021/04/19 06:36:46;;;;;;;25.15;20.23;;;12.60;66.90;;;;;;5113904;28;20130;-70
2021/04/19 06:39:14;;;;;;;26.40;20.10;;;13.50;64.00;;;;;;5096486;28;20024;-73
2021/04/19 06:41:40;;;;;;;28.27;20.95;;;13.80;61.00;;;;;;5114106;28;20028;-73
2021/04/19 06:44:06;;;;;;;26.60;20.33;;;13.80;62.00;;;;;;5083876;28;20055;-72
2021/04/19 06:46:37;;;;;;;23.20;18.63;;;14.30;59.70;;;;;;5095108;28;20523;-73
2021/04/19 06:49:04;;;;;;;24.95;19.23;;;14.60;58.30;;;;;;5113421;28;20026;-72
2021/04/19 06:51:31;;;;;;;25.98;20.00;;;14.60;58.30;;;;;;5095117;28;20504;-71
2021/04/19 06:53:58;;;;;;;25.27;20.00;;;15.00;58.10;;;;;;5113723;28;20023;-70
2021/04/19 06:56:27;;;;;;;23.25;19.42;;;15.80;55.30;;;;;;5107990;28;20529;-68
2021/04/19 06:58:55;;;;;;;24.63;18.80;;;16.20;53.50;;;;;;5107294;28;20015;-70
2021/04/19 07:01:23;;;;;;;24.73;18.83;;;16.10;52.30;;;;;;5094893;28;20746;-69
2021/04/19 07:03:58;;;;;;;28.60;20.50;;;15.40;54.60;;;;;;5074732;28;20080;-70
2021/04/19 07:06:27;;;;;;;28.60;21.98;;;14.90;55.40;;;;;;5111903;28;20483;-71
2021/04/19 07:09:23;;;;;;;27.10;21.98;;;14.00;59.10;;;;;;5113316;28;20019;-70
2021/04/19 07:11:53;;;;;;;29.63;21.55;;;13.70;60.00;;;;;;5114195;28;20516;-71
2021/04/19 07:14:19;;;;;;;30.98;22.75;;;;;;;;;;5113368;28;20055;-72
2021/04/19 07:16:44;;;;;;;27.33;21.42;;;12.50;63.80;;;;;;5094391;28;20016;-71
2021/04/19 07:19:11;;;;;;;28.50;21.35;;;12.50;65.10;;;;;;5113252;28;20385;-71
2021/04/19 07:21:38;;;;;;;28.60;22.05;;;12.20;64.90;;;;;;5113026;28;20512;-71
2021/04/19 07:24:04;;;;;;;32.88;22.75;;;11.90;66.50;;;;;;5113134;28;20038;-72
2021/04/19 07:26:31;;;;;;;27.33;22.25;;;11.60;67.40;;;;;;5093708;28;20023;-70
2021/04/19 07:28:56;;;;;;;31.45;23.92;;;11.80;67.60;;;;;;5113042;28;20019;-72
2021/04/19 07:31:50;;;;;;;29.75;21.77;;;11.50;68.30;;;;;;5105581;28;20020;-73
2021/04/19 07:34:23;;;;;;;30.13;23.67;;;11.90;68.10;;;;;;5090762;28;20065;-73
2021/04/19 07:36:59;;;;;;;31.65;23.30;;;12.30;66.30;;;;;;5093980;28;20034;-72
2021/04/19 07:39:28;;;;;;;31.15;23.88;;;12.50;66.20;;;;;;5094083;28;20028;-71
2021/04/19 07:41:59;;;;;;;32.22;23.35;;;13.20;64.60;;;;;;5106023;28;20024;-72
2021/04/19 07:45:11;;;;;;;32.95;24.85;;;13.20;63.60;;;;;;5119114;27;20030;-71
2021/04/19 07:47:41;;;;;;;31.67;24.70;;;12.70;65.50;;;;;;5112312;27;20481;-70
2021/04/19 07:50:16;;;;;;;32.72;23.73;;;12.50;65.70;;;;;;5138488;27;20023;-73
2021/04/19 07:53:06;;;;;;;50.25;31.67;;;12.90;64.90;;;;;;5136767;27;20033;-75
2021/04/19 07:55:37;;;;;;;41.73;27.30;;;13.20;65.40;;;;;;5119195;28;20259;-74
2021/04/19 07:58:25;;;;;;;36.13;24.43;;;13.40;63.90;;;;;;5082689;28;20270;-72
2021/04/19 08:01:02;;;;;;;34.38;24.73;;;13.00;64.60;;;;;;5096455;28;20030;-73
2021/04/19 08:03:47;;;;;;;27.95;22.35;;;13.20;64.90;;;;;;5110932;28;20046;-72
2021/04/19 08:06:22;;;;;;;28.55;21.90;;;13.70;62.70;;;;;;5109997;28;20027;-71
2021/04/19 08:08:49;;;;;;;24.00;19.40;;;13.80;61.40;;;;;;5110740;28;20050;-70
2021/04/19 08:11:29;;;;;;;26.10;18.95;;;14.50;60.70;;;;;;5072676;28;20032;-72
2021/04/19 08:14:08;;;;;;;27.23;19.45;;;15.40;58.50;;;;;;5106588;28;20034;-72
2021/04/19 08:16:33;;;;;;;23.55;19.50;;;16.10;56.20;;;;;;5095053;28;20094;-71
2021/04/19 08:19:04;;;;;;;23.63;18.50;;;16.90;53.90;;;;;;5112216;28;20058;-72
2021/04/19 08:21:31;;;;;;;23.75;18.63;;;16.30;54.30;;;;;;5094108;28;20020;-71
2021/04/19 08:24:17;;;;;;;24.33;18.42;;;16.30;53.60;;;;;;5107254;28;20520;-70
2021/04/19 08:27:00;;;;;;;23.25;18.42;;;16.90;53.20;;;;;;5077483;28;20092;-71
2021/04/19 08:29:49;;;;;;;24.40;18.98;;;16.60;51.10;;;;;;5109742;28;20481;-71
2021/04/19 08:32:20;;;;;;;24.45;20.88;;;15.20;55.50;;;;;;5109581;28;20024;-72
2021/04/19 08:34:49;;;;;;;26.75;20.13;;;14.70;58.00;;;;;;5093395;28;20019;-71
2021/04/19 08:37:30;;;;;;;26.35;20.48;;;15.50;56.10;;;;;;5111047;28;20032;-77
2021/04/19 08:40:05;;;;;;;21.25;17.17;;;15.60;54.10;;;;;;5090669;28;20032;-70
2021/04/19 08:42:40;;;;;;;20.63;15.35;;;17.10;50.20;;;;;;5091140;28;20107;-71
2021/04/19 08:45:06;;;;;;;23.67;18.77;;;19.00;46.50;;;;;;5111442;28;20020;-71
2021/04/19 08:47:39;;;;;;;24.73;18.30;;;19.00;44.80;;;;;;5092716;28;20024;-72
2021/04/19 08:50:11;;;;;;;24.35;19.40;;;19.00;46.40;;;;;;5111991;28;20027;-70
2021/04/19 08:52:37;;;;;;;24.00;18.35;;;18.90;45.50;;;;;;5096087;28;20096;-68
2021/04/19 08:55:18;;;;;;;22.45;18.25;;;18.70;45.70;;;;;;5111598;28;20027;-71
2021/04/19 08:57:45;;;;;;;29.42;19.83;;;19.00;44.30;;;;;;5089344;28;20560;-69
2021/04/19 09:00:17;;;;;;;25.52;20.10;;;17.10;48.90;;;;;;5111181;28;20059;-71
2021/04/19 09:02:46;;;;;;;24.35;20.00;;;16.50;50.60;;;;;;5111466;28;20030;-70
2021/04/19 09:05:17;;;;;;;23.17;19.05;;;17.20;49.10;;;;;;5111304;28;20393;-70
2021/04/19 09:07:50;;;;;;;25.63;19.25;;;17.30;47.20;;;;;;5086948;28;20440;-70
2021/04/19 09:10:20;;;;;;;28.25;19.13;;;16.40;50.40;;;;;;5109546;28;20059;-70
2021/04/19 09:12:49;;;;;;;26.02;18.85;;;16.80;49.80;;;;;;5111131;28;20011;-69
2021/04/19 09:15:29;;;;;;;25.73;18.77;;;17.10;48.90;;;;;;5111312;28;20106;-70
2021/04/19 09:18:09;;;;;;;27.13;19.65;;;16.90;48.70;;;;;;5091822;28;20447;-70
2021/04/19 09:20:50;;;;;;;25.48;18.13;;;16.90;49.40;;;;;;5095255;28;20039;-71
2021/04/19 09:23:22;;;;;;;28.55;20.13;;;16.10;50.70;;;;;;5105206;28;20545;-69
2021/04/19 09:25:50;;;;;;;36.05;21.27;;;15.40;54.40;;;;;;5104583;28;20114;-70
2021/04/19 09:28:49;;;;;;;25.88;18.60;;;16.00;53.10;;;;;;5109870;28;20043;-70
2021/04/19 09:31:15;;;;;;;24.40;18.45;;;16.90;49.70;;;;;;5092700;28;20040;-69
2021/04/19 09:33:40;;;;;;;23.08;18.00;;;17.30;49.80;;;;;;5111474;28;20090;-69
2021/04/19 09:36:08;;;;;;;23.77;18.90;;;17.00;49.70;;;;;;5110374;28;20100;-68
2021/04/19 09:38:41;;;;;;;24.40;18.52;;;16.30;51.20;;;;;;5111178;28;20194;-69
2021/04/19 09:41:12;;;;;;;23.58;19.05;;;15.50;53.60;;;;;;5092256;28;20039;-70
2021/04/19 09:43:44;;;;;;;25.08;19.42;;;14.70;56.50;;;;;;5101133;28;20393;-70
2021/04/19 09:46:16;;;;;;;28.15;20.38;;;14.80;56.10;;;;;;5105536;28;20032;-68
2021/04/19 09:48:43;;;;;;;25.17;19.23;;;14.70;58.80;;;;;;5088177;28;20389;-70
2021/04/19 09:51:19;;;;;;;27.75;19.27;;;15.00;56.80;;;;;;5081245;28;20035;-71
2021/04/19 09:54:09;;;;;;;26.35;19.10;;;15.40;56.10;;;;;;5091727;28;20024;-70
2021/04/19 09:56:41;;;;;;;28.23;19.48;;;15.40;54.60;;;;;;5076188;28;20385;-69
2021/04/19 09:59:10;;;;;;;25.65;19.10;;;15.70;54.70;;;;;;5111215;28;20022;-69
2021/04/19 10:01:49;;;;;;;23.90;18.58;;;16.30;55.30;;;;;;5100622;28;20149;-70
2021/04/19 10:04:15;;;;;;;27.38;19.45;;;16.50;50.80;;;;;;5108678;28;20057;-70
2021/04/19 10:06:52;;;;;;;27.38;18.45;;;15.70;53.60;;;;;;5110022;28;20389;-70
2021/04/19 10:09:31;;;;;;;26.70;19.23;;;16.10;53.90;;;;;;5092767;28;20030;-70
2021/04/19 10:12:07;;;;;;;26.73;20.38;;;16.10;52.90;;;;;;5091905;28;20737;-70
2021/04/19 10:14:38;;;;;;;27.55;19.50;;;15.30;54.00;;;;;;5076147;28;20396;-71
2021/04/19 10:17:32;;;;;;;34.33;22.73;;;14.60;56.50;;;;;;5109532;28;20607;-70
2021/04/19 10:20:13;;;;;;;27.35;19.98;;;14.40;58.90;;;;;;5113827;28;20035;-69
2021/04/19 10:22:41;;;;;;;24.50;18.07;;;15.10;53.80;;;;;;5097523;28;20016;-69
2021/04/19 10:25:15;;;;;;;27.48;19.15;;;15.40;54.20;;;;;;5094230;28;20024;-70
2021/04/19 10:27:47;;;;;;;26.35;17.27;;;16.00;53.30;;;;;;5095074;28;20517;-70
2021/04/19 10:30:15;;;;;;;;;;;16.30;49.20;;;;;;5115135;28;20081;-70
2021/04/19 10:32:44;;;;;;;24.02;16.50;;;16.30;48.80;;;;;;5114202;28;20281;-73
2021/04/19 10:35:33;;;;;;;23.30;16.88;;;15.00;49.90;;;;;;5112171;28;20030;-70
2021/04/19 10:37:59;;;;;;;23.40;17.50;;;14.30;53.80;;;;;;5111878;28;20392;-72
2021/04/19 10:40:26;;;;;;;24.63;17.40;;;15.00;51.70;;;;;;5113266;28;20045;-71
2021/04/19 10:42:53;;;;;;;25.05;17.02;;;15.20;51.80;;;;;;5113130;28;20380;-71
2021/04/19 10:45:19;;;;;;;22.45;15.75;;;15.70;51.20;;;;;;5113368;28;20023;-69
2021/04/19 10:47:53;;;;;;;22.95;16.27;;;16.30;47.60;;;;;;5112682;28;20023;-71
2021/04/19 10:50:39;;;;;;;31.58;20.13;;;17.00;47.40;;;;;;5113261;28;20076;-70
2021/04/19 10:53:11;;;;;;;235.75;139.70;;;17.80;51.40;;;;;;5095519;28;20051;-72
2021/04/19 10:55:39;;;;;;;25.17;17.17;;;18.00;46.10;;;;;;5095472;28;20023;-72
2021/04/19 10:58:11;;;;;;;24.38;17.55;;;17.40;45.10;;;;;;5084466;28;20057;-73
2021/04/19 11:00:39;;;;;;;24.67;17.77;;;16.40;46.80;;;;;;5098321;28;20122;-72
2021/04/19 11:03:05;;;;;;;27.25;18.58;;;14.90;51.60;;;;;;5113781;28;20907;-72
2021/04/19 11:05:32;;;;;;;24.08;17.95;;;14.30;53.60;;;;;;5113636;28;20076;-71
2021/04/19 11:07:57;;;;;;;28.13;18.52;;;14.10;54.90;;;;;;5113215;28;20036;-71
2021/04/19 11:10:25;;;;;;;23.95;17.90;;;13.90;54.70;;;;;;5113882;28;20024;-71
2021/04/19 11:13:02;;;;;;;24.50;17.25;;;13.70;55.50;;;;;;5113589;28;20028;-71
2021/04/19 11:15:39;;;;;;;27.60;18.90;;;13.50;56.50;;;;;;5113551;28;20028;-72
2021/04/19 11:18:26;;;;;;;25.33;16.98;;;13.20;57.10;;;;;;5094476;28;20397;-72
2021/04/19 11:20:54;;;;;;;25.63;17.52;;;13.20;57.10;;;;;;5099862;28;20027;-71
2021/04/19 11:23:25;;;;;;;27.92;18.98;;;13.40;57.60;;;;;;5113370;28;20020;-71
2021/04/19 11:25:54;;;;;;;22.80;16.08;;;13.80;57.90;;;;;;5113144;28;20058;-70
2021/04/19 11:28:19;;;;;;;26.67;17.55;;;14.30;54.70;;;;;;5112801;28;20027;-72
2021/04/19 11:30:47;;;;;;;28.77;17.83;;;14.50;53.60;;;;;;5091766;28;20035;-72
2021/04/19 11:33:24;;;;;;;28.05;17.20;;;15.00;54.40;;;;;;5110053;28;20026;-71
2021/04/19 11:35:59;;;;;;;27.30;16.98;;;15.30;51.90;;;;;;5089126;28;20032;-72
2021/04/19 11:38:25;;;;;;;24.42;17.13;;;15.00;51.40;;;;;;5112612;28;20031;-71
2021/04/19 11:40:53;;;;;;;23.50;15.82;;;15.10;53.50;;;;;;5113293;28;20034;-71
2021/04/19 11:43:31;;;;;;;23.17;16.00;;;15.60;51.70;;;;;;5112979;28;20440;-76
2021/04/19 11:46:09;;;;;;;23.35;16.70;;;16.00;49.20;;;;;;5112990;28;20366;-71
2021/04/19 11:48:41;;;;;;;21.60;16.23;;;16.40;48.40;;;;;;5096986;28;20011;-72
2021/04/19 11:51:08;;;;;;;21.08;15.90;;;16.50;48.00;;;;;;5112603;28;20081;-70
2021/04/19 11:53:37;;;;;;;25.13;17.27;;;16.40;49.30;;;;;;5113067;28;20033;-69
2021/04/19 11:56:04;;;;;;;21.20;16.73;;;16.50;49.20;;;;;;5093919;28;20030;-68
2021/04/19 11:58:32;;;;;;;21.95;16.27;;;16.50;48.90;;;;;;5112550;28;20023;-70
2021/04/19 12:00:57;;;;;;;25.42;18.05;;;16.50;48.00;;;;;;5094166;28;20047;-70
2021/04/19 12:03:23;;;;;;;23.77;17.02;;;16.50;49.90;;;;;;5112835;28;20062;-70
2021/04/19 12:05:49;;;;;;;22.73;17.30;;;16.40;47.90;;;;;;5094956;28;20020;-70
2021/04/19 12:08:15;;;;;;;23.80;17.60;;;16.40;49.50;;;;;;5111835;28;20081;-70
2021/04/19 12:10:41;;;;;;;22.63;16.88;;;16.20;49.80;;;;;;5112414;28;20016;-72
2021/04/19 12:13:13;;;;;;;23.13;17.60;;;16.00;49.60;;;;;;5112184;28;20027;-70
2021/04/19 12:15:39;;;;;;;24.33;17.63;;;15.90;50.40;;;;;;5112236;28;20338;-71
2021/04/19 12:18:04;;;;;;;22.85;17.63;;;16.10;50.50;;;;;;5111848;28;20031;-75
2021/04/19 12:20:30;;;;;;;22.23;16.52;;;16.60;50.60;;;;;;5112548;28;20023;-73
2021/04/19 12:22:56;;;;;;;23.83;16.70;;;16.70;50.50;;;;;;5112174;28;20489;-73
2021/04/19 12:25:21;;;;;;;24.50;17.45;;;17.00;47.00;;;;;;5093900;28;20073;-70
2021/04/19 12:27:47;;;;;;;69.45;48.90;;;;;;;;;;5110872;28;20031;-71
2021/04/19 12:30:13;;;;;;;89.03;65.07;;;17.60;47.70;;;;;;5111750;28;20086;-69
2021/04/19 12:32:39;;;;;;;74.28;53.38;;;17.70;46.50;;;;;;5112121;28;20019;-72
2021/04/19 12:35:05;;;;;;;47.83;34.65;;;17.80;44.40;;;;;;5111737;28;20396;-71
2021/04/19 12:37:30;;;;;;;58.92;42.03;;;17.80;44.60;;;;;;5112000;28;20030;-70
2021/04/19 12:39:56;;;;;;;45.13;30.67;;;17.70;45.20;;;;;;5112315;28;20036;-72
2021/04/19 12:42:22;;;;;;;41.22;28.92;;;17.70;45.50;;;;;;5111180;28;20016;-72
2021/04/19 12:44:50;;;;;;;21.08;17.45;;;17.50;45.70;;;;;;5111681;28;20395;-73
2021/04/19 12:47:15;;;;;;;52.97;36.42;;;17.40;43.90;;;;;;5111174;28;20020;-72
2021/04/19 12:49:41;;;;;;;31.27;21.85;;;17.30;45.10;;;;;;5111894;28;20020;-72